sensor_id;sensor_type;location;lat;lon;timestamp;P1;durP1;ratioP1;P2;durP2;ratioP2
53977;SDS011;39886;47.984;-1.586;2023-06-04T00:00:43;3.67;;;2.20;;
53977;SDS011;39886;47.984;-1.586;2023-06-04T00:03:08;2.72;;;2.20;;
53977;SDS011;39886;47.984;-1.586;2023-06-04T00:05:34;2.83;;;2.55;;
53977;SDS011;39886;47.984;-1.586;2023-06-04T00:08:00;2.45;;;2.20;;
53977;SDS011;39886;47.984;-1.586;2023-06-04T00:10:26;2.55;;;2.33;;
53977;SDS011;39886;47.984;-1.586;2023-06-04T00:12:51;3.10;;;2.63;;
53977;SDS011;39886;47.984;-1.586;2023-06-04T00:15:17;2.67;;;2.20;;
53977;SDS011;39886;47.984;-1.586;2023-06-04T00:17:43;3.63;;;2.40;;
53977;SDS011;39886;47.984;-1.586;2023-06-04T00:20:09;3.00;;;2.60;;
53977;SDS011;39886;47.984;-1.586;2023-06-04T00:22:35;3.22;;;2.25;;
53977;SDS011;39886;47.984;-1.586;2023-06-04T00:25:01;2.42;;;2.22;;
53977;SDS011;39886;47.984;-1.586;2023-06-04T00:30:11;3.25;;;2.53;;
53977;SDS011;39886;47.984;-1.586;2023-06-04T00:32:37;2.65;;;2.45;;
53977;SDS011;39886;47.984;-1.586;2023-06-04T00:35:03;2.90;;;2.33;;
53977;SDS011;39886;47.984;-1.586;2023-06-04T00:37:29;2.67;;;2.38;;
53977;SDS011;39886;47.984;-1.586;2023-06-04T00:39:55;3.08;;;2.40;;
53977;SDS011;39886;47.984;-1.586;2023-06-04T00:42:21;2.95;;;2.50;;
53977;SDS011;39886;47.984;-1.586;2023-06-04T00:44:47;3.75;;;2.50;;
53977;SDS011;39886;47.984;-1.586;2023-06-04T00:47:15;3.50;;;2.65;;
53977;SDS011;39886;47.984;-1.586;2023-06-04T00:49:43;2.45;;;2.13;;
53977;SDS011;39886;47.984;-1.586;2023-06-04T00:52:10;2.75;;;2.40;;
53977;SDS011;39886;47.984;-1.586;2023-06-04T00:54:38;2.83;;;2.63;;
53977;SDS011;39886;47.984;-1.586;2023-06-04T00:57:04;3.25;;;2.40;;
53977;SDS011;39886;47.984;-1.586;2023-06-04T00:59:31;2.55;;;2.30;;
53977;SDS011;39886;47.984;-1.586;2023-06-04T01:04:34;2.97;;;2.25;;
53977;SDS011;39886;47.984;-1.586;2023-06-04T01:07:05;3.40;;;2.20;;
53977;SDS011;39886;47.984;-1.586;2023-06-04T01:09:34;3.20;;;2.35;;
53977;SDS011;39886;47.984;-1.586;2023-06-04T01:12:05;3.28;;;2.42;;
53977;SDS011;39886;47.984;-1.586;2023-06-04T01:14:31;2.42;;;2.22;;
53977;SDS011;39886;47.984;-1.586;2023-06-04T01:17:03;2.60;;;2.40;;
53977;SDS011;39886;47.984;-1.586;2023-06-04T01:22:44;2.78;;;2.47;;
53977;SDS011;39886;47.984;-1.586;2023-06-04T01:25:34;2.70;;;2.25;;
53977;SDS011;39886;47.984;-1.586;2023-06-04T01:28:05;2.72;;;2.33;;
53977;SDS011;39886;47.984;-1.586;2023-06-04T01:30:34;2.67;;;2.35;;
53977;SDS011;39886;47.984;-1.586;2023-06-04T01:33:02;3.10;;;2.38;;
53977;SDS011;39886;47.984;-1.586;2023-06-04T01:35:28;2.80;;;2.15;;
53977;SDS011;39886;47.984;-1.586;2023-06-04T01:37:57;2.63;;;2.20;;
53977;SDS011;39886;47.984;-1.586;2023-06-04T01:40:23;2.78;;;1.88;;
53977;SDS011;39886;47.984;-1.586;2023-06-04T01:42:50;2.40;;;2.20;;
53977;SDS011;39886;47.984;-1.586;2023-06-04T01:45:16;2.65;;;2.03;;
53977;SDS011;39886;47.984;-1.586;2023-06-04T01:47:42;2.50;;;1.90;;
53977;SDS011;39886;47.984;-1.586;2023-06-04T01:50:08;2.50;;;2.30;;
53977;SDS011;39886;47.984;-1.586;2023-06-04T01:52:35;3.00;;;2.15;;
53977;SDS011;39886;47.984;-1.586;2023-06-04T01:55:04;2.33;;;2.13;;
53977;SDS011;39886;47.984;-1.586;2023-06-04T01:57:32;2.47;;;2.25;;
53977;SDS011;39886;47.984;-1.586;2023-06-04T01:59:59;2.40;;;2.15;;
53977;SDS011;39886;47.984;-1.586;2023-06-04T02:02:25;3.33;;;2.60;;
53977;SDS011;39886;47.984;-1.586;2023-06-04T02:04:51;3.17;;;2.15;;
53977;SDS011;39886;47.984;-1.586;2023-06-04T02:07:18;4.00;;;2.13;;
53977;SDS011;39886;47.984;-1.586;2023-06-04T02:09:47;2.50;;;2.20;;
53977;SDS011;39886;47.984;-1.586;2023-06-04T02:12:13;2.20;;;2.00;;
53977;SDS011;39886;47.984;-1.586;2023-06-04T02:14:40;2.65;;;2.20;;
53977;SDS011;39886;47.984;-1.586;2023-06-04T02:17:10;3.45;;;2.35;;
53977;SDS011;39886;47.984;-1.586;2023-06-04T02:19:41;2.63;;;2.42;;
53977;SDS011;39886;47.984;-1.586;2023-06-04T02:22:10;2.90;;;2.30;;
53977;SDS011;39886;47.984;-1.586;2023-06-04T02:24:37;2.25;;;2.00;;
53977;SDS011;39886;47.984;-1.586;2023-06-04T02:27:04;2.85;;;2.45;;
53977;SDS011;39886;47.984;-1.586;2023-06-04T02:29:31;3.20;;;2.33;;
53977;SDS011;39886;47.984;-1.586;2023-06-04T02:31:57;2.20;;;2.00;;
53977;SDS011;39886;47.984;-1.586;2023-06-04T02:34:22;3.28;;;2.38;;
53977;SDS011;39886;47.984;-1.586;2023-06-04T02:36:49;2.28;;;2.05;;
53977;SDS011;39886;47.984;-1.586;2023-06-04T02:39:16;2.53;;;2.00;;
53977;SDS011;39886;47.984;-1.586;2023-06-04T02:41:43;3.33;;;2.20;;
53977;SDS011;39886;47.984;-1.586;2023-06-04T02:44:08;2.30;;;2.10;;
53977;SDS011;39886;47.984;-1.586;2023-06-04T02:46:34;2.80;;;2.00;;
53977;SDS011;39886;47.984;-1.586;2023-06-04T02:49:00;2.72;;;2.13;;
53977;SDS011;39886;47.984;-1.586;2023-06-04T02:51:25;2.30;;;2.10;;
53977;SDS011;39886;47.984;-1.586;2023-06-04T02:53:53;2.20;;;2.00;;
53977;SDS011;39886;47.984;-1.586;2023-06-04T02:56:19;2.20;;;1.98;;
53977;SDS011;39886;47.984;-1.586;2023-06-04T02:58:49;2.55;;;2.28;;
53977;SDS011;39886;47.984;-1.586;2023-06-04T03:01:19;2.05;;;1.92;;
53977;SDS011;39886;47.984;-1.586;2023-06-04T03:03:48;2.05;;;1.85;;
53977;SDS011;39886;47.984;-1.586;2023-06-04T03:06:15;2.40;;;2.10;;
53977;SDS011;39886;47.984;-1.586;2023-06-04T03:08:42;2.55;;;2.08;;
53977;SDS011;39886;47.984;-1.586;2023-06-04T03:11:08;2.10;;;1.90;;
53977;SDS011;39886;47.984;-1.586;2023-06-04T03:13:34;3.05;;;2.00;;
53977;SDS011;39886;47.984;-1.586;2023-06-04T03:16:01;2.55;;;2.10;;
53977;SDS011;39886;47.984;-1.586;2023-06-04T03:18:30;2.40;;;2.00;;
53977;SDS011;39886;47.984;-1.586;2023-06-04T03:20:57;2.25;;;1.98;;
53977;SDS011;39886;47.984;-1.586;2023-06-04T03:23:24;2.67;;;2.10;;
53977;SDS011;39886;47.984;-1.586;2023-06-04T03:25:50;2.40;;;2.05;;
53977;SDS011;39886;47.984;-1.586;2023-06-04T03:28:15;2.17;;;2.00;;
53977;SDS011;39886;47.984;-1.586;2023-06-04T03:30:41;2.20;;;2.00;;
53977;SDS011;39886;47.984;-1.586;2023-06-04T03:33:07;2.13;;;2.00;;
53977;SDS011;39886;47.984;-1.586;2023-06-04T03:35:33;2.15;;;1.90;;
53977;SDS011;39886;47.984;-1.586;2023-06-04T03:37:59;2.65;;;2.00;;
53977;SDS011;39886;47.984;-1.586;2023-06-04T03:40:25;2.97;;;2.33;;
53977;SDS011;39886;47.984;-1.586;2023-06-04T03:42:51;2.25;;;2.03;;
53977;SDS011;39886;47.984;-1.586;2023-06-04T03:45:17;2.15;;;1.92;;
53977;SDS011;39886;47.984;-1.586;2023-06-04T03:47:42;2.35;;;1.95;;
53977;SDS011;39886;47.984;-1.586;2023-06-04T03:50:08;1.85;;;1.75;;
53977;SDS011;39886;47.984;-1.586;2023-06-04T03:52:34;2.17;;;1.98;;
53977;SDS011;39886;47.984;-1.586;2023-06-04T03:55:00;2.55;;;2.15;;
53977;SDS011;39886;47.984;-1.586;2023-06-04T03:57:26;3.05;;;2.20;;
53977;SDS011;39886;47.984;-1.586;2023-06-04T03:59:52;2.28;;;2.00;;
53977;SDS011;39886;47.984;-1.586;2023-06-04T04:02:18;2.22;;;1.95;;
53977;SDS011;39886;47.984;-1.586;2023-06-04T04:04:44;2.38;;;2.13;;
53977;SDS011;39886;47.984;-1.586;2023-06-04T04:07:09;2.25;;;1.80;;
53977;SDS011;39886;47.984;-1.586;2023-06-04T04:09:35;2.15;;;1.95;;
53977;SDS011;39886;47.984;-1.586;2023-06-04T04:12:02;2.20;;;2.00;;
53977;SDS011;39886;47.984;-1.586;2023-06-04T04:14:28;2.00;;;1.77;;
53977;SDS011;39886;47.984;-1.586;2023-06-04T04:16:54;2.13;;;1.92;;
53977;SDS011;39886;47.984;-1.586;2023-06-04T04:19:19;2.33;;;1.90;;
53977;SDS011;39886;47.984;-1.586;2023-06-04T04:21:45;2.08;;;1.88;;
53977;SDS011;39886;47.984;-1.586;2023-06-04T04:24:23;2.83;;;1.92;;
53977;SDS011;39886;47.984;-1.586;2023-06-04T04:26:52;2.08;;;1.90;;
53977;SDS011;39886;47.984;-1.586;2023-06-04T04:29:21;2.65;;;2.10;;
53977;SDS011;39886;47.984;-1.586;2023-06-04T04:31:49;1.98;;;1.80;;
53977;SDS011;39886;47.984;-1.586;2023-06-04T04:34:21;2.42;;;1.95;;
53977;SDS011;39886;47.984;-1.586;2023-06-04T04:36:48;2.00;;;1.73;;
53977;SDS011;39886;47.984;-1.586;2023-06-04T04:39:26;2.20;;;1.90;;
53977;SDS011;39886;47.984;-1.586;2023-06-04T04:41:53;3.42;;;1.90;;
53977;SDS011;39886;47.984;-1.586;2023-06-04T04:44:21;2.90;;;2.00;;
53977;SDS011;39886;47.984;-1.586;2023-06-04T04:46:49;2.13;;;1.92;;
53977;SDS011;39886;47.984;-1.586;2023-06-04T04:49:15;2.22;;;1.90;;
53977;SDS011;39886;47.984;-1.586;2023-06-04T04:51:40;2.10;;;1.90;;
53977;SDS011;39886;47.984;-1.586;2023-06-04T04:54:06;2.00;;;1.77;;
53977;SDS011;39886;47.984;-1.586;2023-06-04T04:56:33;2.42;;;1.80;;
53977;SDS011;39886;47.984;-1.586;2023-06-04T04:59:02;2.00;;;1.60;;
53977;SDS011;39886;47.984;-1.586;2023-06-04T05:01:28;2.95;;;2.10;;
53977;SDS011;39886;47.984;-1.586;2023-06-04T05:03:53;1.75;;;1.65;;
53977;SDS011;39886;47.984;-1.586;2023-06-04T05:06:19;2.35;;;1.70;;
53977;SDS011;39886;47.984;-1.586;2023-06-04T05:08:46;2.47;;;1.88;;
53977;SDS011;39886;47.984;-1.586;2023-06-04T05:11:12;2.05;;;1.83;;
53977;SDS011;39886;47.984;-1.586;2023-06-04T05:13:38;2.17;;;1.98;;
53977;SDS011;39886;47.984;-1.586;2023-06-04T05:16:04;2.03;;;1.85;;
53977;SDS011;39886;47.984;-1.586;2023-06-04T05:18:34;2.25;;;1.80;;
53977;SDS011;39886;47.984;-1.586;2023-06-04T05:21:05;2.17;;;1.98;;
53977;SDS011;39886;47.984;-1.586;2023-06-04T05:23:32;1.58;;;1.48;;
53977;SDS011;39886;47.984;-1.586;2023-06-04T05:25:59;2.58;;;1.75;;
53977;SDS011;39886;47.984;-1.586;2023-06-04T05:28:26;2.38;;;2.00;;
53977;SDS011;39886;47.984;-1.586;2023-06-04T05:30:52;2.22;;;1.83;;
53977;SDS011;39886;47.984;-1.586;2023-06-04T05:33:24;2.15;;;1.92;;
53977;SDS011;39886;47.984;-1.586;2023-06-04T05:35:50;2.13;;;1.90;;
53977;SDS011;39886;47.984;-1.586;2023-06-04T05:38:25;3.03;;;1.88;;
53977;SDS011;39886;47.984;-1.586;2023-06-04T05:40:53;2.15;;;1.92;;
53977;SDS011;39886;47.984;-1.586;2023-06-04T05:43:20;1.90;;;1.77;;
53977;SDS011;39886;47.984;-1.586;2023-06-04T05:45:46;2.08;;;1.88;;
53977;SDS011;39886;47.984;-1.586;2023-06-04T05:48:12;2.38;;;1.65;;
53977;SDS011;39886;47.984;-1.586;2023-06-04T05:50:38;1.90;;;1.70;;
53977;SDS011;39886;47.984;-1.586;2023-06-04T05:53:04;2.08;;;1.75;;
53977;SDS011;39886;47.984;-1.586;2023-06-04T05:55:29;2.00;;;1.80;;
53977;SDS011;39886;47.984;-1.586;2023-06-04T05:57:55;2.00;;;1.80;;
53977;SDS011;39886;47.984;-1.586;2023-06-04T06:00:21;1.95;;;1.75;;
53977;SDS011;39886;47.984;-1.586;2023-06-04T06:02:49;1.80;;;1.70;;
53977;SDS011;39886;47.984;-1.586;2023-06-04T06:05:15;1.70;;;1.60;;
53977;SDS011;39886;47.984;-1.586;2023-06-04T06:07:42;1.83;;;1.73;;
53977;SDS011;39886;47.984;-1.586;2023-06-04T06:10:09;1.80;;;1.70;;
53977;SDS011;39886;47.984;-1.586;2023-06-04T06:12:35;1.73;;;1.60;;
53977;SDS011;39886;47.984;-1.586;2023-06-04T06:15:01;2.47;;;1.83;;
53977;SDS011;39886;47.984;-1.586;2023-06-04T06:17:26;1.70;;;1.60;;
53977;SDS011;39886;47.984;-1.586;2023-06-04T06:19:53;1.70;;;1.60;;
53977;SDS011;39886;47.984;-1.586;2023-06-04T06:22:20;2.03;;;1.70;;
53977;SDS011;39886;47.984;-1.586;2023-06-04T06:24:46;1.98;;;1.60;;
53977;SDS011;39886;47.984;-1.586;2023-06-04T06:27:13;1.67;;;1.55;;
53977;SDS011;39886;47.984;-1.586;2023-06-04T06:29:40;1.92;;;1.70;;
53977;SDS011;39886;47.984;-1.586;2023-06-04T06:32:06;1.80;;;1.70;;
53977;SDS011;39886;47.984;-1.586;2023-06-04T06:34:32;1.83;;;1.67;;
53977;SDS011;39886;47.984;-1.586;2023-06-04T06:36:58;1.75;;;1.65;;
53977;SDS011;39886;47.984;-1.586;2023-06-04T06:39:24;2.00;;;1.80;;
53977;SDS011;39886;47.984;-1.586;2023-06-04T06:41:49;2.20;;;1.63;;
53977;SDS011;39886;47.984;-1.586;2023-06-04T06:44:15;1.50;;;1.40;;
53977;SDS011;39886;47.984;-1.586;2023-06-04T06:46:41;1.67;;;1.58;;
53977;SDS011;39886;47.984;-1.586;2023-06-04T06:49:07;1.63;;;1.52;;
53977;SDS011;39886;47.984;-1.586;2023-06-04T06:51:33;1.80;;;1.70;;
53977;SDS011;39886;47.984;-1.586;2023-06-04T06:53:59;1.77;;;1.67;;
53977;SDS011;39886;47.984;-1.586;2023-06-04T06:56:24;2.55;;;1.60;;
53977;SDS011;39886;47.984;-1.586;2023-06-04T06:58:51;1.40;;;1.30;;
53977;SDS011;39886;47.984;-1.586;2023-06-04T07:01:17;1.90;;;1.70;;
53977;SDS011;39886;47.984;-1.586;2023-06-04T07:03:43;1.70;;;1.50;;
53977;SDS011;39886;47.984;-1.586;2023-06-04T07:06:08;1.63;;;1.50;;
53977;SDS011;39886;47.984;-1.586;2023-06-04T07:08:34;2.35;;;1.65;;
53977;SDS011;39886;47.984;-1.586;2023-06-04T07:11:01;2.42;;;1.60;;
53977;SDS011;39886;47.984;-1.586;2023-06-04T07:13:28;2.00;;;1.77;;
53977;SDS011;39886;47.984;-1.586;2023-06-04T07:15:57;2.00;;;1.80;;
53977;SDS011;39886;47.984;-1.586;2023-06-04T07:18:22;3.25;;;1.95;;
53977;SDS011;39886;47.984;-1.586;2023-06-04T07:20:48;2.58;;;1.60;;
53977;SDS011;39886;47.984;-1.586;2023-06-04T07:23:14;1.67;;;1.23;;
53977;SDS011;39886;47.984;-1.586;2023-06-04T07:25:40;1.77;;;1.60;;
53977;SDS011;39886;47.984;-1.586;2023-06-04T07:28:06;1.70;;;1.60;;
53977;SDS011;39886;47.984;-1.586;2023-06-04T07:30:32;1.85;;;1.30;;
53977;SDS011;39886;47.984;-1.586;2023-06-04T07:32:57;1.60;;;1.50;;
53977;SDS011;39886;47.984;-1.586;2023-06-04T07:35:23;1.52;;;1.42;;
53977;SDS011;39886;47.984;-1.586;2023-06-04T07:37:49;1.58;;;1.48;;
53977;SDS011;39886;47.984;-1.586;2023-06-04T07:40:15;1.58;;;1.48;;
53977;SDS011;39886;47.984;-1.586;2023-06-04T07:42:41;1.60;;;1.50;;
53977;SDS011;39886;47.984;-1.586;2023-06-04T07:45:08;1.70;;;1.60;;
53977;SDS011;39886;47.984;-1.586;2023-06-04T07:47:36;1.52;;;1.38;;
53977;SDS011;39886;47.984;-1.586;2023-06-04T07:50:02;1.85;;;1.35;;
53977;SDS011;39886;47.984;-1.586;2023-06-04T07:52:29;1.60;;;1.50;;
53977;SDS011;39886;47.984;-1.586;2023-06-04T07:54:55;2.05;;;1.85;;
53977;SDS011;39886;47.984;-1.586;2023-06-04T07:57:21;1.58;;;1.48;;
53977;SDS011;39886;47.984;-1.586;2023-06-04T07:59:47;1.40;;;1.30;;
53977;SDS011;39886;47.984;-1.586;2023-06-04T08:02:13;1.75;;;1.50;;
53977;SDS011;39886;47.984;-1.586;2023-06-04T08:04:39;1.60;;;1.50;;
53977;SDS011;39886;47.984;-1.586;2023-06-04T08:07:05;1.80;;;1.70;;
53977;SDS011;39886;47.984;-1.586;2023-06-04T08:09:31;1.60;;;1.50;;
53977;SDS011;39886;47.984;-1.586;2023-06-04T08:11:57;1.60;;;1.50;;
53977;SDS011;39886;47.984;-1.586;2023-06-04T08:14:23;1.60;;;1.50;;
53977;SDS011;39886;47.984;-1.586;2023-06-04T08:16:51;1.60;;;1.50;;
53977;SDS011;39886;47.984;-1.586;2023-06-04T08:19:20;1.50;;;1.40;;
53977;SDS011;39886;47.984;-1.586;2023-06-04T08:21:46;1.40;;;1.30;;
53977;SDS011;39886;47.984;-1.586;2023-06-04T08:24:12;1.45;;;1.30;;
53977;SDS011;39886;47.984;-1.586;2023-06-04T08:26:38;1.33;;;1.23;;
53977;SDS011;39886;47.984;-1.586;2023-06-04T08:29:04;1.20;;;1.15;;
53977;SDS011;39886;47.984;-1.586;2023-06-04T08:31:30;1.73;;;1.50;;
53977;SDS011;39886;47.984;-1.586;2023-06-04T08:33:56;2.03;;;1.60;;
53977;SDS011;39886;47.984;-1.586;2023-06-04T08:36:21;1.50;;;1.40;;
53977;SDS011;39886;47.984;-1.586;2023-06-04T08:38:47;1.60;;;1.25;;
53977;SDS011;39886;47.984;-1.586;2023-06-04T08:41:30;1.60;;;1.50;;
53977;SDS011;39886;47.984;-1.586;2023-06-04T08:43:58;1.98;;;1.40;;
53977;SDS011;39886;47.984;-1.586;2023-06-04T08:46:26;1.38;;;1.27;;
53977;SDS011;39886;47.984;-1.586;2023-06-04T08:48:53;1.50;;;1.40;;
53977;SDS011;39886;47.984;-1.586;2023-06-04T08:51:21;1.60;;;1.50;;
53977;SDS011;39886;47.984;-1.586;2023-06-04T08:53:47;1.52;;;1.42;;
53977;SDS011;39886;47.984;-1.586;2023-06-04T08:56:15;1.83;;;1.45;;
53977;SDS011;39886;47.984;-1.586;2023-06-04T08:58:42;1.50;;;1.40;;
53977;SDS011;39886;47.984;-1.586;2023-06-04T09:01:09;1.60;;;1.50;;
53977;SDS011;39886;47.984;-1.586;2023-06-04T09:03:36;1.42;;;1.27;;
53977;SDS011;39886;47.984;-1.586;2023-06-04T09:06:02;1.50;;;1.40;;
53977;SDS011;39886;47.984;-1.586;2023-06-04T09:08:31;1.50;;;1.38;;
53977;SDS011;39886;47.984;-1.586;2023-06-04T09:11:00;1.42;;;1.33;;
53977;SDS011;39886;47.984;-1.586;2023-06-04T09:13:30;1.65;;;1.45;;
53977;SDS011;39886;47.984;-1.586;2023-06-04T09:16:01;1.40;;;1.30;;
53977;SDS011;39886;47.984;-1.586;2023-06-04T09:18:27;1.50;;;1.40;;
53977;SDS011;39886;47.984;-1.586;2023-06-04T09:21:02;1.33;;;1.23;;
53977;SDS011;39886;47.984;-1.586;2023-06-04T09:23:30;2.03;;;1.42;;
53977;SDS011;39886;47.984;-1.586;2023-06-04T09:26:06;1.85;;;1.40;;
53977;SDS011;39886;47.984;-1.586;2023-06-04T09:28:33;2.45;;;1.50;;
53977;SDS011;39886;47.984;-1.586;2023-06-04T09:31:00;1.40;;;1.30;;
53977;SDS011;39886;47.984;-1.586;2023-06-04T09:33:27;1.60;;;1.50;;
53977;SDS011;39886;47.984;-1.586;2023-06-04T09:35:58;1.50;;;1.40;;
53977;SDS011;39886;47.984;-1.586;2023-06-04T09:38:36;1.27;;;1.17;;
53977;SDS011;39886;47.984;-1.586;2023-06-04T09:41:02;1.30;;;1.23;;
53977;SDS011;39886;47.984;-1.586;2023-06-04T09:43:31;2.13;;;1.63;;
53977;SDS011;39886;47.984;-1.586;2023-06-04T09:46:10;1.30;;;1.20;;
53977;SDS011;39886;47.984;-1.586;2023-06-04T09:48:38;1.73;;;1.50;;
53977;SDS011;39886;47.984;-1.586;2023-06-04T09:53:36;1.45;;;1.35;;
53977;SDS011;39886;47.984;-1.586;2023-06-04T09:56:03;1.50;;;1.40;;
53977;SDS011;39886;47.984;-1.586;2023-06-04T09:58:30;2.17;;;1.40;;
53977;SDS011;39886;47.984;-1.586;2023-06-04T10:00:57;1.25;;;1.15;;
53977;SDS011;39886;47.984;-1.586;2023-06-04T10:03:24;1.58;;;1.30;;
53977;SDS011;39886;47.984;-1.586;2023-06-04T10:05:56;1.70;;;1.45;;
53977;SDS011;39886;47.984;-1.586;2023-06-04T10:08:23;1.83;;;1.42;;
53977;SDS011;39886;47.984;-1.586;2023-06-04T10:10:50;1.30;;;1.20;;
53977;SDS011;39886;47.984;-1.586;2023-06-04T10:13:19;1.40;;;1.30;;
53977;SDS011;39886;47.984;-1.586;2023-06-04T10:15:46;1.63;;;1.48;;
53977;SDS011;39886;47.984;-1.586;2023-06-04T10:18:13;1.65;;;1.50;;
53977;SDS011;39886;47.984;-1.586;2023-06-04T10:20:40;1.75;;;1.52;;
53977;SDS011;39886;47.984;-1.586;2023-06-04T10:23:06;1.85;;;1.65;;
53977;SDS011;39886;47.984;-1.586;2023-06-04T10:25:36;1.33;;;1.23;;
53977;SDS011;39886;47.984;-1.586;2023-06-04T10:28:02;1.65;;;1.50;;
53977;SDS011;39886;47.984;-1.586;2023-06-04T10:30:29;1.55;;;1.45;;
53977;SDS011;39886;47.984;-1.586;2023-06-04T10:32:58;1.45;;;1.33;;
53977;SDS011;39886;47.984;-1.586;2023-06-04T10:38:12;1.50;;;1.40;;
53977;SDS011;39886;47.984;-1.586;2023-06-04T10:40:41;1.38;;;1.27;;
53977;SDS011;39886;47.984;-1.586;2023-06-04T10:43:07;1.42;;;1.33;;
53977;SDS011;39886;47.984;-1.586;2023-06-04T10:45:34;1.40;;;1.30;;
53977;SDS011;39886;47.984;-1.586;2023-06-04T10:48:03;1.48;;;1.38;;
53977;SDS011;39886;47.984;-1.586;2023-06-04T10:50:31;1.73;;;1.50;;
53977;SDS011;39886;47.984;-1.586;2023-06-04T10:52:58;1.70;;;1.42;;
53977;SDS011;39886;47.984;-1.586;2023-06-04T10:55:28;1.15;;;1.08;;
53977;SDS011;39886;47.984;-1.586;2023-06-04T10:57:55;1.48;;;1.38;;
53977;SDS011;39886;47.984;-1.586;2023-06-04T11:00:37;1.73;;;1.60;;
53977;SDS011;39886;47.984;-1.586;2023-06-04T11:03:04;2.90;;;1.40;;
53977;SDS011;39886;47.984;-1.586;2023-06-04T11:05:38;1.40;;;1.30;;
53977;SDS011;39886;47.984;-1.586;2023-06-04T11:08:04;1.50;;;1.40;;
53977;SDS011;39886;47.984;-1.586;2023-06-04T11:10:38;1.50;;;1.40;;
53977;SDS011;39886;47.984;-1.586;2023-06-04T11:13:05;1.50;;;1.40;;
53977;SDS011;39886;47.984;-1.586;2023-06-04T11:15:40;1.30;;;1.20;;
53977;SDS011;39886;47.984;-1.586;2023-06-04T11:18:07;1.55;;;1.30;;
53977;SDS011;39886;47.984;-1.586;2023-06-04T11:20:33;1.45;;;1.30;;
53977;SDS011;39886;47.984;-1.586;2023-06-04T11:22:59;1.52;;;1.42;;
53977;SDS011;39886;47.984;-1.586;2023-06-04T11:25:28;1.45;;;1.27;;
53977;SDS011;39886;47.984;-1.586;2023-06-04T11:27:55;1.42;;;1.33;;
53977;SDS011;39886;47.984;-1.586;2023-06-04T11:30:22;2.33;;;1.55;;
53977;SDS011;39886;47.984;-1.586;2023-06-04T11:32:48;1.65;;;1.40;;
53977;SDS011;39886;47.984;-1.586;2023-06-04T11:35:15;1.70;;;1.45;;
53977;SDS011;39886;47.984;-1.586;2023-06-04T11:37:41;1.65;;;1.55;;
53977;SDS011;39886;47.984;-1.586;2023-06-04T11:40:18;1.55;;;1.33;;
53977;SDS011;39886;47.984;-1.586;2023-06-04T11:42:45;1.80;;;1.40;;
53977;SDS011;39886;47.984;-1.586;2023-06-04T11:45:12;1.50;;;1.40;;
53977;SDS011;39886;47.984;-1.586;2023-06-04T11:47:40;1.50;;;1.40;;
53977;SDS011;39886;47.984;-1.586;2023-06-04T11:50:10;1.50;;;1.40;;
53977;SDS011;39886;47.984;-1.586;2023-06-04T11:52:37;1.48;;;1.38;;
53977;SDS011;39886;47.984;-1.586;2023-06-04T11:55:03;1.50;;;1.40;;
53977;SDS011;39886;47.984;-1.586;2023-06-04T11:57:32;1.50;;;1.40;;
53977;SDS011;39886;47.984;-1.586;2023-06-04T11:59:58;1.58;;;1.48;;
53977;SDS011;39886;47.984;-1.586;2023-06-04T12:02:24;1.70;;;1.60;;
53977;SDS011;39886;47.984;-1.586;2023-06-04T12:04:50;1.70;;;1.42;;
53977;SDS011;39886;47.984;-1.586;2023-06-04T12:07:19;1.40;;;1.30;;
53977;SDS011;39886;47.984;-1.586;2023-06-04T12:09:49;1.55;;;1.38;;
53977;SDS011;39886;47.984;-1.586;2023-06-04T12:12:20;1.65;;;1.50;;
53977;SDS011;39886;47.984;-1.586;2023-06-04T12:14:55;1.75;;;1.40;;
53977;SDS011;39886;47.984;-1.586;2023-06-04T12:17:22;1.77;;;1.50;;
53977;SDS011;39886;47.984;-1.586;2023-06-04T12:19:49;1.80;;;1.50;;
53977;SDS011;39886;47.984;-1.586;2023-06-04T12:22:15;1.70;;;1.60;;
53977;SDS011;39886;47.984;-1.586;2023-06-04T12:24:48;1.90;;;1.70;;
53977;SDS011;39886;47.984;-1.586;2023-06-04T12:27:18;1.65;;;1.40;;
53977;SDS011;39886;47.984;-1.586;2023-06-04T12:32:26;2.22;;;1.60;;
53977;SDS011;39886;47.984;-1.586;2023-06-04T12:34:52;1.60;;;1.40;;
53977;SDS011;39886;47.984;-1.586;2023-06-04T12:37:20;2.33;;;1.42;;
53977;SDS011;39886;47.984;-1.586;2023-06-04T12:39:46;1.63;;;1.52;;
53977;SDS011;39886;47.984;-1.586;2023-06-04T12:42:12;2.50;;;1.60;;
53977;SDS011;39886;47.984;-1.586;2023-06-04T12:44:38;1.85;;;1.70;;
53977;SDS011;39886;47.984;-1.586;2023-06-04T12:47:05;1.45;;;1.35;;
53977;SDS011;39886;47.984;-1.586;2023-06-04T12:49:31;1.42;;;1.33;;
53977;SDS011;39886;47.984;-1.586;2023-06-04T12:51:57;1.75;;;1.65;;
53977;SDS011;39886;47.984;-1.586;2023-06-04T12:54:23;1.55;;;1.45;;
53977;SDS011;39886;47.984;-1.586;2023-06-04T12:56:50;1.60;;;1.50;;
53977;SDS011;39886;47.984;-1.586;2023-06-04T12:59:16;1.88;;;1.58;;
53977;SDS011;39886;47.984;-1.586;2023-06-04T13:01:42;1.88;;;1.40;;
53977;SDS011;39886;47.984;-1.586;2023-06-04T13:04:07;1.75;;;1.52;;
53977;SDS011;39886;47.984;-1.586;2023-06-04T13:06:34;2.55;;;1.60;;
53977;SDS011;39886;47.984;-1.586;2023-06-04T13:09:03;2.03;;;1.73;;
53977;SDS011;39886;47.984;-1.586;2023-06-04T13:11:37;1.75;;;1.65;;
53977;SDS011;39886;47.984;-1.586;2023-06-04T13:14:04;1.92;;;1.60;;
53977;SDS011;39886;47.984;-1.586;2023-06-04T13:16:30;1.60;;;1.50;;
53977;SDS011;39886;47.984;-1.586;2023-06-04T13:18:56;1.70;;;1.60;;
53977;SDS011;39886;47.984;-1.586;2023-06-04T13:21:22;1.60;;;1.50;;
53977;SDS011;39886;47.984;-1.586;2023-06-04T13:23:47;2.00;;;1.50;;
53977;SDS011;39886;47.984;-1.586;2023-06-04T13:26:15;2.28;;;1.58;;
53977;SDS011;39886;47.984;-1.586;2023-06-04T13:28:43;1.70;;;1.60;;
53977;SDS011;39886;47.984;-1.586;2023-06-04T13:31:09;2.13;;;1.55;;
53977;SDS011;39886;47.984;-1.586;2023-06-04T13:33:35;1.90;;;1.50;;
53977;SDS011;39886;47.984;-1.586;2023-06-04T13:36:05;1.60;;;1.50;;
53977;SDS011;39886;47.984;-1.586;2023-06-04T13:38:31;1.75;;;1.50;;
53977;SDS011;39886;47.984;-1.586;2023-06-04T13:40:57;1.70;;;1.60;;
53977;SDS011;39886;47.984;-1.586;2023-06-04T13:43:23;1.92;;;1.67;;
53977;SDS011;39886;47.984;-1.586;2023-06-04T13:45:49;1.48;;;1.30;;
53977;SDS011;39886;47.984;-1.586;2023-06-04T13:48:15;2.00;;;1.70;;
53977;SDS011;39886;47.984;-1.586;2023-06-04T13:50:41;1.58;;;1.48;;
53977;SDS011;39886;47.984;-1.586;2023-06-04T13:53:07;1.85;;;1.67;;
53977;SDS011;39886;47.984;-1.586;2023-06-04T13:55:34;3.30;;;1.70;;
53977;SDS011;39886;47.984;-1.586;2023-06-04T13:57:59;2.05;;;1.85;;
53977;SDS011;39886;47.984;-1.586;2023-06-04T14:00:25;1.83;;;1.60;;
53977;SDS011;39886;47.984;-1.586;2023-06-04T14:02:51;1.55;;;1.45;;
53977;SDS011;39886;47.984;-1.586;2023-06-04T14:05:19;2.00;;;1.80;;
53977;SDS011;39886;47.984;-1.586;2023-06-04T14:07:45;1.70;;;1.60;;
53977;SDS011;39886;47.984;-1.586;2023-06-04T14:10:11;1.88;;;1.60;;
53977;SDS011;39886;47.984;-1.586;2023-06-04T14:12:38;2.33;;;1.85;;
53977;SDS011;39886;47.984;-1.586;2023-06-04T14:15:09;1.90;;;1.70;;
53977;SDS011;39886;47.984;-1.586;2023-06-04T14:17:38;1.85;;;1.70;;
53977;SDS011;39886;47.984;-1.586;2023-06-04T14:20:04;2.00;;;1.80;;
53977;SDS011;39886;47.984;-1.586;2023-06-04T14:22:34;1.83;;;1.73;;
53977;SDS011;39886;47.984;-1.586;2023-06-04T14:25:01;2.05;;;1.77;;
53977;SDS011;39886;47.984;-1.586;2023-06-04T14:27:27;2.08;;;1.88;;
53977;SDS011;39886;47.984;-1.586;2023-06-04T14:29:54;1.95;;;1.70;;
53977;SDS011;39886;47.984;-1.586;2023-06-04T14:32:20;1.60;;;1.50;;
53977;SDS011;39886;47.984;-1.586;2023-06-04T14:34:46;1.50;;;1.40;;
53977;SDS011;39886;47.984;-1.586;2023-06-04T14:37:11;1.70;;;1.60;;
53977;SDS011;39886;47.984;-1.586;2023-06-04T14:39:37;2.25;;;1.80;;
53977;SDS011;39886;47.984;-1.586;2023-06-04T14:42:03;1.70;;;1.60;;
53977;SDS011;39886;47.984;-1.586;2023-06-04T14:44:29;2.22;;;2.03;;
53977;SDS011;39886;47.984;-1.586;2023-06-04T14:46:55;1.50;;;1.38;;
53977;SDS011;39886;47.984;-1.586;2023-06-04T14:49:21;1.95;;;1.75;;